Time;durP1;ratioP1;P1;durP2;ratioP2;P2;SDS_P1;SDS_P2;PMS_P1;PMS_P2;Temp;Humidity;BMP_temperature;BMP_pressure;BME280_temperature;BME280_humidity;BME280_pressure;Samples;Min_cycle;Max_cycle;Signal;HPM_P1;HPM_P2
2024/01/30 00:01:55;;;;;;;3.72;3.00;;;7.20;99.90;;;;;;5033151;28;20686;-47
2024/01/30 00:04:23;;;;;;;3.40;3.10;;;7.20;99.90;;;;;;5033998;28;20698;-49
2024/01/30 00:06:54;;;;;;;3.30;2.90;;;7.20;99.90;;;;;;5035481;28;20222;-49
2024/01/30 00:09:22;;;;;;;4.10;2.85;;;7.20;99.90;;;;;;5033507;28;20221;-49
2024/01/30 00:11:51;;;;;;;3.75;2.75;;;7.20;99.90;;;;;;5033551;28;20304;-48
2024/01/30 00:14:20;;;;;;;3.70;2.90;;;7.20;99.90;;;;;;5036924;28;20232;-48
2024/01/30 00:16:48;;;;;;;4.45;3.50;;;7.20;99.90;;;;;;5035556;28;20202;-47
2024/01/30 00:19:16;;;;;;;4.45;3.25;;;7.20;99.90;;;;;;5035376;28;20210;-48
2024/01/30 00:21:45;;;;;;;3.03;2.55;;;7.20;99.90;;;;;;5045670;28;20234;-46
2024/01/30 00:24:14;;;;;;;3.25;2.60;;;7.20;99.90;;;;;;5039925;28;20633;-47
2024/01/30 00:26:42;;;;;;;3.78;2.97;;;7.20;99.90;;;;;;5040033;28;20664;-47
2024/01/30 00:29:12;;;;;;;3.67;2.78;;;7.20;99.90;;;;;;5034634;28;20222;-48
2024/01/30 00:31:40;;;;;;;4.10;2.70;;;7.20;99.90;;;;;;5030734;28;20197;-47
2024/01/30 00:34:09;;;;;;;4.03;2.63;;;7.20;99.90;;;;;;5042451;28;20220;-48
2024/01/30 00:36:38;;;;;;;3.75;2.92;;;7.20;99.90;;;;;;5041042;28;20185;-46
2024/01/30 00:39:08;;;;;;;3.03;2.72;;;7.20;99.90;;;;;;5041755;28;20217;-47
2024/01/30 00:41:38;;;;;;;4.30;3.08;;;7.20;99.90;;;;;;5036438;28;20267;-46
2024/01/30 00:44:07;;;;;;;3.25;2.47;;;7.20;99.90;;;;;;5042556;28;20219;-48
2024/01/30 00:46:35;;;;;;;2.85;2.53;;;7.20;99.90;;;;;;5032281;28;20579;-46
2024/01/30 00:49:03;;;;;;;4.90;3.20;;;7.20;99.90;;;;;;5038300;28;20217;-47
2024/01/30 00:51:32;;;;;;;3.47;2.85;;;7.20;99.90;;;;;;5038864;28;20674;-48
2024/01/30 00:54:00;;;;;;;4.38;3.30;;;7.20;99.90;;;;;;5040078;28;20225;-48
2024/01/30 00:56:28;;;;;;;3.85;2.80;;;7.20;99.90;;;;;;5034928;28;20582;-46
2024/01/30 00:58:58;;;;;;;4.45;3.30;;;7.20;99.90;;;;;;5047518;28;20273;-47
2024/01/30 01:01:26;;;;;;;4.05;2.20;;;7.20;99.90;;;;;;5043689;28;21044;-48
2024/01/30 01:03:55;;;;;;;4.15;3.33;;;7.20;99.90;;;;;;5036968;28;20227;-47
2024/01/30 01:06:23;;;;;;;4.20;3.22;;;7.20;99.90;;;;;;5047582;28;20190;-48
2024/01/30 01:08:51;;;;;;;4.13;3.08;;;7.20;99.90;;;;;;5036285;28;20224;-47
2024/01/30 01:11:20;;;;;;;3.08;2.78;;;7.20;99.90;;;;;;5034017;28;20194;-47
2024/01/30 01:13:49;;;;;;;3.22;2.80;;;7.20;99.90;;;;;;5036692;28;20709;-47
2024/01/30 01:16:18;;;;;;;3.80;3.20;;;7.20;99.90;;;;;;5043078;28;20288;-47
2024/01/30 01:18:47;;;;;;;3.58;2.80;;;7.20;99.90;;;;;;5041937;28;20721;-48
2024/01/30 01:21:16;;;;;;;3.47;2.50;;;7.20;99.90;;;;;;5042350;28;20551;-48
2024/01/30 01:23:44;;;;;;;3.88;2.65;;;7.20;99.90;;;;;;5037749;28;20221;-49
2024/01/30 01:26:12;;;;;;;3.03;2.40;;;7.20;99.90;;;;;;5043944;28;20618;-48
2024/01/30 01:28:42;;;;;;;3.10;2.53;;;7.30;99.90;;;;;;5040070;28;20640;-47
2024/01/30 01:31:10;;;;;;;5.13;2.72;;;7.20;99.90;;;;;;5033240;28;20692;-45
2024/01/30 01:33:40;;;;;;;2.80;2.40;;;7.20;99.90;;;;;;5038135;28;20228;-48
2024/01/30 01:36:09;;;;;;;3.92;2.47;;;7.20;99.90;;;;;;5034165;28;20197;-47
2024/01/30 01:38:37;;;;;;;4.85;2.58;;;7.30;99.90;;;;;;5041449;28;20561;-48
2024/01/30 01:41:06;;;;;;;3.28;2.30;;;7.30;99.90;;;;;;5036390;28;20613;-47
2024/01/30 01:43:34;;;;;;;3.30;2.45;;;7.20;99.90;;;;;;5042749;28;20702;-48
2024/01/30 01:46:03;;;;;;;3.25;2.50;;;7.20;99.90;;;;;;5039002;28;20650;-47
2024/01/30 01:48:32;;;;;;;3.72;2.53;;;7.30;99.90;;;;;;5046528;28;20693;-47
2024/01/30 01:51:03;;;;;;;3.00;2.70;;;7.30;99.90;;;;;;5042262;28;20725;-48
2024/01/30 01:53:32;;;;;;;3.75;2.72;;;7.30;99.90;;;;;;5043186;28;20221;-46
2024/01/30 01:56:01;;;;;;;3.20;2.28;;;7.30;99.90;;;;;;5036137;28;20199;-47
2024/01/30 01:58:30;;;;;;;3.05;2.67;;;7.30;99.90;;;;;;5049399;28;20626;-47
2024/01/30 02:01:00;;;;;;;3.45;2.67;;;7.30;99.90;;;;;;5039598;28;20200;-47
2024/01/30 02:03:29;;;;;;;4.00;2.83;;;7.30;99.90;;;;;;5034096;28;20709;-46
2024/01/30 02:05:57;;;;;;;4.40;2.70;;;7.30;99.90;;;;;;5046484;28;20629;-48
2024/01/30 02:08:28;;;;;;;3.15;2.35;;;7.30;99.90;;;;;;5040234;28;20634;-48
2024/01/30 02:10:57;;;;;;;3.13;2.72;;;7.30;99.90;;;;;;5039489;28;20227;-47
2024/01/30 02:13:25;;;;;;;3.63;2.97;;;7.30;99.90;;;;;;5040964;28;20698;-50
2024/01/30 02:15:53;;;;;;;3.25;2.42;;;7.30;99.90;;;;;;5034498;28;20239;-48
2024/01/30 02:18:23;;;;;;;3.70;2.75;;;7.30;99.90;;;;;;5048850;28;20193;-46
2024/01/30 02:20:57;;;;;;;2.80;2.55;;;7.30;99.90;;;;;;5049497;28;20202;-48
2024/01/30 02:23:28;;;;;;;3.75;3.00;;;7.20;99.90;;;;;;5034442;28;20313;-51
2024/01/30 02:25:56;;;;;;;3.20;2.65;;;7.30;99.90;;;;;;5037296;28;20592;-48
2024/01/30 02:28:25;;;;;;;3.20;2.58;;;7.30;99.90;;;;;;5043769;28;20472;-47
2024/01/30 02:30:53;;;;;;;3.20;2.70;;;7.30;99.90;;;;;;5032549;28;20388;-50
2024/01/30 02:33:22;;;;;;;4.07;2.65;;;7.30;99.90;;;;;;5048168;28;20219;-48
2024/01/30 02:35:51;;;;;;;2.85;2.40;;;7.20;99.90;;;;;;5040899;28;20288;-46
2024/01/30 02:38:19;;;;;;;4.35;3.05;;;7.20;99.90;;;;;;5039800;28;20201;-48
2024/01/30 02:40:48;;;;;;;3.70;2.60;;;7.30;99.90;;;;;;5037206;28;20570;-47
2024/01/30 02:43:17;;;;;;;4.07;2.97;;;7.20;99.90;;;;;;5037408;28;20217;-48
2024/01/30 02:45:46;;;;;;;3.63;3.05;;;7.30;99.90;;;;;;5032375;28;20245;-47
2024/01/30 02:48:14;;;;;;;3.90;2.58;;;7.30;99.90;;;;;;5045362;28;20199;-48
2024/01/30 02:50:42;;;;;;;3.10;2.30;;;7.30;99.90;;;;;;5033231;28;20276;-48
2024/01/30 02:53:11;;;;;;;3.40;2.70;;;7.30;99.90;;;;;;5033661;28;20223;-48
2024/01/30 02:55:40;;;;;;;4.03;3.58;;;7.30;99.90;;;;;;5035605;28;20725;-47
2024/01/30 02:58:10;;;;;;;3.88;2.50;;;7.30;99.90;;;;;;5044961;28;20721;-47
2024/01/30 03:00:38;;;;;;;4.18;2.72;;;7.30;99.90;;;;;;5040248;28;20214;-47
2024/01/30 03:03:07;;;;;;;4.00;2.60;;;7.30;99.90;;;;;;5033951;28;20229;-46
2024/01/30 03:05:35;;;;;;;2.90;2.60;;;7.30;99.90;;;;;;5034411;28;20694;-47
2024/01/30 03:08:06;;;;;;;2.75;2.30;;;7.30;99.90;;;;;;5042809;28;20195;-47
2024/01/30 03:10:34;;;;;;;3.38;2.70;;;7.20;99.90;;;;;;5038263;28;20240;-50
2024/01/30 03:13:02;;;;;;;3.10;2.80;;;7.30;99.90;;;;;;5036427;28;20219;-47
2024/01/30 03:15:32;;;;;;;2.72;2.47;;;7.30;99.90;;;;;;5038094;28;20210;-47
2024/01/30 03:18:00;;;;;;;3.03;2.10;;;7.30;99.90;;;;;;5038387;28;20217;-48
2024/01/30 03:20:28;;;;;;;2.67;2.25;;;7.20;99.90;;;;;;5047434;28;20208;-48
2024/01/30 03:22:57;;;;;;;2.92;2.25;;;7.30;99.90;;;;;;5043054;28;20217;-51
2024/01/30 03:25:25;;;;;;;3.75;2.60;;;7.30;99.90;;;;;;5037945;28;20217;-47
2024/01/30 03:27:54;;;;;;;4.07;2.20;;;7.30;99.90;;;;;;5044864;28;20221;-48
2024/01/30 03:30:23;;;;;;;3.92;3.05;;;7.30;99.90;;;;;;5036532;28;20221;-49
2024/01/30 03:32:52;;;;;;;3.40;2.67;;;7.30;99.90;;;;;;5034838;28;20217;-46
2024/01/30 03:35:20;;;;;;;4.43;2.33;;;7.30;99.90;;;;;;5024378;28;20216;-48
2024/01/30 03:37:49;;;;;;;2.70;2.47;;;7.30;99.90;;;;;;5039583;28;20248;-48
2024/01/30 03:40:17;;;;;;;3.08;2.50;;;7.30;99.90;;;;;;5036416;28;20245;-47
2024/01/30 03:42:45;;;;;;;3.55;2.33;;;7.30;99.90;;;;;;5045313;28;20300;-46
2024/01/30 03:45:14;;;;;;;4.55;3.10;;;7.30;99.90;;;;;;5036957;28;20692;-49
2024/01/30 03:47:44;;;;;;;2.80;2.42;;;7.30;99.90;;;;;;5038850;28;20503;-45
2024/01/30 03:50:14;;;;;;;2.78;2.58;;;7.30;99.90;;;;;;5035565;28;20221;-48
2024/01/30 03:52:42;;;;;;;3.20;2.30;;;7.30;99.90;;;;;;5032966;28;20705;-48
2024/01/30 03:55:10;;;;;;;2.75;2.25;;;7.30;99.90;;;;;;5032593;28;20221;-48
2024/01/30 03:57:40;;;;;;;3.17;2.65;;;7.30;99.90;;;;;;5037929;28;20189;-47
2024/01/30 04:00:10;;;;;;;3.55;2.35;;;7.30;99.90;;;;;;5029958;28;20610;-48
2024/01/30 04:02:40;;;;;;;3.72;2.72;;;7.30;99.90;;;;;;5035379;28;20632;-48
2024/01/30 04:05:10;;;;;;;3.50;2.40;;;7.30;99.90;;;;;;5048061;28;20246;-47
2024/01/30 04:07:39;;;;;;;3.35;2.40;;;7.20;99.90;;;;;;5037679;28;20197;-47
2024/01/30 04:10:09;;;;;;;3.83;3.15;;;7.30;99.90;;;;;;5034697;28;20222;-47
2024/01/30 04:12:37;;;;;;;3.47;2.50;;;7.30;99.90;;;;;;5040834;28;20227;-48
2024/01/30 04:15:06;;;;;;;3.15;2.20;;;7.30;99.90;;;;;;5035456;28;20214;-47
2024/01/30 04:17:34;;;;;;;3.05;2.65;;;7.30;99.90;;;;;;5041477;28;20283;-48
2024/01/30 04:20:03;;;;;;;3.58;2.30;;;7.30;99.90;;;;;;5036664;28;20224;-48
2024/01/30 04:22:31;;;;;;;3.05;2.15;;;7.30;99.90;;;;;;5041236;28;20651;-47
2024/01/30 04:25:01;;;;;;;2.70;2.10;;;7.30;99.90;;;;;;5040699;28;20245;-48
2024/01/30 04:27:29;;;;;;;3.35;2.15;;;7.30;99.90;;;;;;5039592;28;20680;-47
2024/01/30 04:29:57;;;;;;;4.00;2.60;;;7.30;99.90;;;;;;5041774;28;20586;-47
2024/01/30 04:32:26;;;;;;;3.05;2.75;;;7.30;99.90;;;;;;5022715;28;20224;-47
2024/01/30 04:34:54;;;;;;;4.47;2.75;;;7.30;99.90;;;;;;5037394;28;20511;-47
2024/01/30 04:37:22;;;;;;;3.97;2.28;;;7.20;99.90;;;;;;5038185;28;20741;-47
2024/01/30 04:39:50;;;;;;;3.33;2.50;;;7.30;99.90;;;;;;5038393;28;20243;-48
2024/01/30 04:42:21;;;;;;;4.85;2.70;;;7.30;99.90;;;;;;5038441;28;20604;-48
2024/01/30 04:44:50;;;;;;;3.58;2.78;;;7.30;99.90;;;;;;5041379;28;20595;-47
2024/01/30 04:47:18;;;;;;;2.88;2.35;;;7.30;99.90;;;;;;5034199;28;20276;-47
2024/01/30 04:49:47;;;;;;;3.85;2.40;;;7.30;99.90;;;;;;5038757;28;20227;-48
2024/01/30 04:52:16;;;;;;;4.93;2.88;;;7.20;99.90;;;;;;5040546;28;20260;-46
2024/01/30 04:54:44;;;;;;;2.72;2.28;;;7.30;99.90;;;;;;5043714;28;20295;-48
2024/01/30 04:57:12;;;;;;;3.00;2.13;;;7.20;99.90;;;;;;5036361;28;20547;-48
2024/01/30 04:59:42;;;;;;;2.92;2.50;;;7.20;99.90;;;;;;5020575;28;20242;-47
2024/01/30 05:02:10;;;;;;;4.10;2.67;;;7.30;99.90;;;;;;5035802;28;20296;-47
2024/01/30 05:04:38;;;;;;;3.17;2.50;;;7.30;99.90;;;;;;5034487;28;20280;-47
2024/01/30 05:07:07;;;;;;;2.70;2.00;;;7.30;99.90;;;;;;5038990;28;20200;-47
2024/01/30 05:09:36;;;;;;;3.30;2.88;;;7.30;99.90;;;;;;5040628;28;20221;-47
2024/01/30 05:12:05;;;;;;;2.65;2.38;;;7.20;99.90;;;;;;5031160;28;20786;-47
2024/01/30 05:14:33;;;;;;;2.60;1.90;;;7.30;99.90;;;;;;5044594;28;20505;-45
2024/01/30 05:17:03;;;;;;;3.50;2.55;;;7.20;99.90;;;;;;5040038;28;20284;-48
2024/01/30 05:19:32;;;;;;;2.80;2.40;;;7.30;99.90;;;;;;5042928;28;20701;-48
2024/01/30 05:22:00;;;;;;;4.88;2.40;;;7.30;99.90;;;;;;5040590;28;20600;-48
2024/01/30 05:24:29;;;;;;;3.88;2.47;;;7.30;99.90;;;;;;5048346;28;20225;-48
2024/01/30 05:26:58;;;;;;;3.63;2.38;;;7.30;99.90;;;;;;5039986;28;20280;-47
2024/01/30 05:29:28;;;;;;;3.60;2.67;;;7.30;99.90;;;;;;5045090;28;20219;-47
2024/01/30 05:31:56;;;;;;;3.70;2.80;;;7.30;99.90;;;;;;5044063;28;20627;-48
2024/01/30 05:34:26;;;;;;;3.28;2.38;;;7.20;99.90;;;;;;5049269;28;20619;-47
2024/01/30 05:36:54;;;;;;;3.15;2.13;;;7.20;99.90;;;;;;5039750;28;20191;-48
2024/01/30 05:39:23;;;;;;;3.00;2.00;;;7.20;99.90;;;;;;5041197;28;20220;-47
2024/01/30 05:41:51;;;;;;;3.08;2.25;;;7.20;99.90;;;;;;5043816;28;20173;-47
2024/01/30 05:44:19;;;;;;;4.13;2.28;;;7.20;99.90;;;;;;5042643;28;20705;-47
2024/01/30 05:46:47;;;;;;;3.20;2.60;;;7.20;99.90;;;;;;5049200;28;20208;-47
2024/01/30 05:49:16;;;;;;;2.97;2.10;;;7.20;99.90;;;;;;5042264;28;20224;-46
2024/01/30 05:51:46;;;;;;;3.03;2.38;;;7.20;99.90;;;;;;5034758;28;20717;-47
2024/01/30 05:54:14;;;;;;;3.33;2.67;;;7.30;99.90;;;;;;5045713;28;20313;-49
2024/01/30 05:56:45;;;;;;;3.28;2.15;;;7.20;99.90;;;;;;5038722;28;20202;-47
2024/01/30 05:59:13;;;;;;;2.40;2.10;;;7.20;99.90;;;;;;5050723;28;20216;-47
2024/01/30 06:01:46;;;;;;;2.85;2.38;;;7.20;99.90;;;;;;5047364;28;20204;-48
2024/01/30 06:04:15;;;;;;;3.08;2.20;;;7.30;99.90;;;;;;5040719;28;20214;-49
2024/01/30 06:06:46;;;;;;;2.72;1.95;;;7.30;99.90;;;;;;5037006;28;20208;-48
2024/01/30 06:09:16;;;;;;;4.07;2.05;;;7.20;99.90;;;;;;5033741;28;20686;-47
2024/01/30 06:11:44;;;;;;;2.60;2.40;;;7.20;99.90;;;;;;5041549;28;20705;-48
2024/01/30 06:14:12;;;;;;;2.42;2.20;;;7.20;99.90;;;;;;5038911;28;20708;-46
2024/01/30 06:16:41;;;;;;;4.57;2.83;;;7.20;99.90;;;;;;5037916;28;20225;-47
2024/01/30 06:19:09;;;;;;;3.42;2.50;;;7.20;99.90;;;;;;5041128;28;20634;-48
2024/01/30 06:21:38;;;;;;;2.95;2.40;;;7.20;99.90;;;;;;5042289;28;20247;-47
2024/01/30 06:24:08;;;;;;;3.35;2.17;;;7.20;99.90;;;;;;5045081;28;20216;-48
2024/01/30 06:26:37;;;;;;;3.25;2.67;;;7.20;99.90;;;;;;5031024;28;20271;-49
2024/01/30 06:29:05;;;;;;;2.63;1.98;;;7.30;99.90;;;;;;5038547;28;20223;-48
2024/01/30 06:31:33;;;;;;;2.83;2.50;;;7.20;99.90;;;;;;5034722;28;20200;-47
2024/01/30 06:34:02;;;;;;;2.85;2.33;;;7.20;99.90;;;;;;5046510;28;20678;-48
2024/01/30 06:36:30;;;;;;;3.65;2.10;;;7.30;99.90;;;;;;5041270;28;20201;-50
2024/01/30 06:38:58;;;;;;;2.33;2.03;;;7.30;99.90;;;;;;5040775;28;20958;-46
2024/01/30 06:41:28;;;;;;;2.78;2.00;;;7.20;99.90;;;;;;5025051;28;20568;-48
2024/01/30 06:43:57;;;;;;;3.72;2.28;;;7.20;99.90;;;;;;5048082;28;20231;-47
2024/01/30 06:46:25;;;;;;;3.30;2.38;;;7.20;99.90;;;;;;5043323;28;20662;-47
2024/01/30 06:48:54;;;;;;;2.20;1.80;;;7.20;99.90;;;;;;5034235;28;20303;-48
2024/01/30 06:51:23;;;;;;;3.45;2.92;;;7.20;99.90;;;;;;5039184;28;20205;-48
2024/01/30 06:53:51;;;;;;;2.70;2.10;;;7.20;99.90;;;;;;5038488;28;20342;-50
2024/01/30 06:56:20;;;;;;;3.60;2.83;;;7.20;99.90;;;;;;5050415;28;20195;-47
2024/01/30 06:58:50;;;;;;;3.15;2.40;;;7.20;99.90;;;;;;5036626;28;20245;-47
2024/01/30 07:01:18;;;;;;;2.70;2.38;;;7.20;99.90;;;;;;5043533;28;20195;-47
2024/01/30 07:03:47;;;;;;;3.30;2.20;;;7.20;99.90;;;;;;5036664;28;20287;-48
2024/01/30 07:06:15;;;;;;;3.13;2.40;;;7.20;99.90;;;;;;5043231;28;20567;-49
2024/01/30 07:08:44;;;;;;;3.38;2.10;;;7.20;99.90;;;;;;5043340;28;20747;-47
2024/01/30 07:11:18;;;;;;;2.90;2.35;;;7.20;99.90;;;;;;5040077;28;20201;-48
2024/01/30 07:13:48;;;;;;;3.05;2.05;;;7.20;99.90;;;;;;5035322;28;20282;-47
2024/01/30 07:16:18;;;;;;;3.08;2.38;;;7.20;99.90;;;;;;5036406;28;20654;-47
2024/01/30 07:18:46;;;;;;;3.03;2.10;;;7.20;99.90;;;;;;5043458;28;20235;-48
2024/01/30 07:21:15;;;;;;;3.13;2.38;;;7.20;99.90;;;;;;5040463;28;20303;-51
2024/01/30 07:23:44;;;;;;;4.30;2.80;;;7.20;99.90;;;;;;5036779;28;20218;-47
2024/01/30 07:26:12;;;;;;;3.25;2.53;;;7.20;99.90;;;;;;5040233;28;20192;-49
2024/01/30 07:28:41;;;;;;;4.15;2.78;;;7.20;99.90;;;;;;5039848;28;20246;-47
2024/01/30 07:31:09;;;;;;;3.00;2.20;;;7.20;99.90;;;;;;5038504;28;20200;-46
2024/01/30 07:33:38;;;;;;;3.50;2.63;;;7.20;99.90;;;;;;5046167;28;20222;-47
2024/01/30 07:36:07;;;;;;;3.22;2.30;;;7.20;99.90;;;;;;5049615;28;20677;-47
2024/01/30 07:38:35;;;;;;;3.58;2.10;;;7.20;99.90;;;;;;5043751;28;20566;-46
2024/01/30 07:41:03;;;;;;;3.35;2.20;;;7.20;99.90;;;;;;5039373;28;20268;-46
2024/01/30 07:43:31;;;;;;;2.97;2.35;;;7.20;99.90;;;;;;5041000;28;20209;-49
2024/01/30 07:46:00;;;;;;;4.38;3.10;;;7.20;99.90;;;;;;5037619;28;20202;-47
2024/01/30 07:48:33;;;;;;;2.70;2.22;;;7.20;99.90;;;;;;5038252;28;20196;-47
2024/01/30 07:51:07;;;;;;;2.50;2.10;;;7.20;99.90;;;;;;5047854;28;20216;-46
2024/01/30 07:53:36;;;;;;;3.60;2.22;;;7.20;99.90;;;;;;5035207;28;20257;-48
2024/01/30 07:56:06;;;;;;;3.47;2.47;;;7.20;99.90;;;;;;5033571;28;20198;-47
2024/01/30 07:58:34;;;;;;;3.08;2.15;;;7.20;99.90;;;;;;5039200;28;20199;-47
2024/01/30 08:01:03;;;;;;;2.58;2.20;;;7.20;99.90;;;;;;5042450;28;20194;-47
2024/01/30 08:03:32;;;;;;;3.72;3.03;;;7.20;99.90;;;;;;5035198;28;20273;-46
2024/01/30 08:05:59;;;;;;;3.10;2.50;;;7.20;99.90;;;;;;5045344;28;20251;-46
2024/01/30 08:08:29;;;;;;;3.40;2.05;;;7.20;99.90;;;;;;5039660;28;20186;-45
2024/01/30 08:10:57;;;;;;;4.65;3.45;;;7.20;99.90;;;;;;5041998;28;20289;-46
2024/01/30 08:13:25;;;;;;;2.50;2.00;;;7.20;99.90;;;;;;5034776;28;20209;-46
2024/01/30 08:15:53;;;;;;;3.25;2.40;;;7.20;99.90;;;;;;5034876;28;20218;-46
2024/01/30 08:18:21;;;;;;;2.58;2.08;;;7.20;99.90;;;;;;5037561;28;20221;-47
2024/01/30 08:20:49;;;;;;;3.35;2.45;;;7.20;99.90;;;;;;5033784;28;20242;-45
2024/01/30 08:23:17;;;;;;;3.03;2.10;;;7.30;99.90;;;;;;5039021;28;20210;-45
2024/01/30 08:25:47;;;;;;;4.88;2.40;;;7.30;99.90;;;;;;5043719;28;20216;-46
2024/01/30 08:28:15;;;;;;;3.15;2.42;;;7.30;99.90;;;;;;5043967;28;20196;-45
2024/01/30 08:30:46;;;;;;;2.72;2.45;;;7.30;99.90;;;;;;5043062;28;20323;-46
2024/01/30 08:33:14;;;;;;;3.85;2.60;;;7.30;99.90;;;;;;5033474;28;20267;-46
2024/01/30 08:35:42;;;;;;;3.80;2.90;;;7.30;99.90;;;;;;5036127;28;20228;-45
2024/01/30 08:38:12;;;;;;;3.08;2.40;;;7.30;99.90;;;;;;5040017;28;20554;-46
2024/01/30 08:40:40;;;;;;;3.10;2.47;;;7.30;99.90;;;;;;5040425;28;20289;-46
2024/01/30 08:43:10;;;;;;;2.97;2.67;;;7.30;99.90;;;;;;5033754;28;20210;-46
2024/01/30 08:45:38;;;;;;;3.70;2.85;;;7.30;99.90;;;;;;5036801;28;20579;-46
2024/01/30 08:48:07;;;;;;;3.08;2.20;;;7.30;99.90;;;;;;5041734;28;20229;-45
2024/01/30 08:50:35;;;;;;;3.05;2.40;;;7.30;99.90;;;;;;5045884;28;20224;-46
2024/01/30 08:53:05;;;;;;;2.80;2.30;;;7.30;99.90;;;;;;5044001;28;20629;-45
2024/01/30 08:55:33;;;;;;;2.70;2.05;;;7.30;99.90;;;;;;5046651;28;20227;-46
2024/01/30 08:58:03;;;;;;;3.65;2.58;;;7.20;99.90;;;;;;5052725;28;20203;-45
2024/01/30 09:00:33;;;;;;;2.72;2.40;;;7.30;99.90;;;;;;5050287;28;20227;-45
2024/01/30 09:03:01;;;;;;;2.92;2.35;;;7.30;99.90;;;;;;5047404;28;20769;-45
2024/01/30 09:05:29;;;;;;;4.57;2.75;;;7.30;99.90;;;;;;5045966;28;20536;-46
2024/01/30 09:07:57;;;;;;;3.15;2.38;;;7.30;99.90;;;;;;5052214;28;20545;-45
2024/01/30 09:10:26;;;;;;;2.88;2.50;;;7.30;99.90;;;;;;5046777;28;20594;-46
2024/01/30 09:12:55;;;;;;;2.90;2.30;;;7.30;99.90;;;;;;5046594;28;20582;-46
2024/01/30 09:15:23;;;;;;;2.70;2.20;;;7.20;99.90;;;;;;5049735;28;20230;-46
2024/01/30 09:17:55;;;;;;;2.65;2.13;;;7.30;99.90;;;;;;5050087;28;20736;-45
2024/01/30 09:20:23;;;;;;;3.10;2.10;;;7.30;99.90;;;;;;5040752;28;20221;-46
2024/01/30 09:22:51;;;;;;;4.30;2.33;;;7.20;99.90;;;;;;5043646;28;20216;-46
2024/01/30 09:25:19;;;;;;;2.63;1.83;;;7.30;99.90;;;;;;5040132;28;20228;-46
2024/01/30 09:27:47;;;;;;;3.30;2.45;;;7.30;99.90;;;;;;5045842;28;20642;-45
2024/01/30 09:30:16;;;;;;;3.13;2.28;;;7.30;99.90;;;;;;5047039;28;20248;-46
2024/01/30 09:32:44;;;;;;;3.10;2.47;;;7.20;99.90;;;;;;5040535;28;20213;-46
2024/01/30 09:35:13;;;;;;;3.53;2.22;;;7.30;99.90;;;;;;5047663;28;20611;-45
2024/01/30 09:37:42;;;;;;;2.20;1.95;;;7.20;99.90;;;;;;5051666;28;20574;-46
2024/01/30 09:40:10;;;;;;;2.83;2.40;;;7.30;99.90;;;;;;5045183;28;20216;-46
2024/01/30 09:42:39;;;;;;;3.13;2.10;;;7.30;99.90;;;;;;5040380;28;20222;-45
2024/01/30 09:45:07;;;;;;;3.10;2.30;;;7.20;99.90;;;;;;5051417;28;20637;-46
2024/01/30 09:47:42;;;;;;;3.53;2.20;;;7.30;99.90;;;;;;5043640;28;20671;-46
2024/01/30 09:50:11;;;;;;;2.53;2.15;;;7.30;99.90;;;;;;5042659;28;20692;-46
2024/01/30 09:52:41;;;;;;;2.95;2.00;;;7.30;99.90;;;;;;5044851;28;20791;-46
2024/01/30 09:55:10;;;;;;;3.63;2.60;;;7.30;99.90;;;;;;5041656;28;20447;-45
2024/01/30 09:57:39;;;;;;;3.65;2.63;;;7.30;99.90;;;;;;5049037;28;20192;-46
2024/01/30 10:00:11;;;;;;;2.80;2.50;;;7.30;99.90;;;;;;5036502;28;20228;-46
2024/01/30 10:02:41;;;;;;;3.50;2.35;;;7.30;99.90;;;;;;5045817;28;20290;-46
2024/01/30 10:05:09;;;;;;;4.32;2.75;;;7.30;99.90;;;;;;5041937;28;20223;-46
2024/01/30 10:07:38;;;;;;;3.65;2.85;;;7.30;99.90;;;;;;5039415;28;20281;-46
2024/01/30 10:10:08;;;;;;;4.88;3.30;;;7.30;99.90;;;;;;5042118;28;20698;-46
2024/01/30 10:12:36;;;;;;;5.03;2.80;;;7.30;99.90;;;;;;5047017;28;20270;-47
2024/01/30 10:15:08;;;;;;;3.10;2.60;;;7.30;99.90;;;;;;5044030;28;20228;-46
2024/01/30 10:17:38;;;;;;;3.22;2.70;;;7.30;99.90;;;;;;5041380;28;20201;-46
2024/01/30 10:20:08;;;;;;;2.97;2.20;;;7.30;99.90;;;;;;5034723;28;20221;-47
2024/01/30 10:22:36;;;;;;;3.40;2.80;;;7.30;99.90;;;;;;5045517;28;20311;-46
2024/01/30 10:25:05;;;;;;;3.50;2.45;;;7.30;99.90;;;;;;5044038;28;20224;-46
2024/01/30 10:27:35;;;;;;;4.35;2.70;;;7.30;99.90;;;;;;5038946;28;20313;-46
2024/01/30 10:30:05;;;;;;;2.65;2.28;;;7.30;99.90;;;;;;5041526;28;20262;-46
2024/01/30 10:32:33;;;;;;;3.20;2.72;;;7.30;99.90;;;;;;5036180;28;20605;-46
2024/01/30 10:35:02;;;;;;;3.92;2.65;;;7.30;99.90;;;;;;5039329;28;20236;-46
2024/01/30 10:37:32;;;;;;;5.82;2.92;;;7.30;99.90;;;;;;5051406;28;20197;-46
2024/01/30 10:40:05;;;;;;;2.60;2.00;;;7.30;99.90;;;;;;5044004;28;20262;-45
2024/01/30 10:42:38;;;;;;;3.40;2.00;;;7.30;99.90;;;;;;5038311;28;20245;-45
2024/01/30 10:45:09;;;;;;;4.85;2.95;;;7.30;99.90;;;;;;5038096;28;20209;-45
2024/01/30 10:47:38;;;;;;;3.00;2.50;;;7.30;99.90;;;;;;5036625;28;20945;-46
2024/01/30 10:50:08;;;;;;;2.72;2.10;;;7.30;99.90;;;;;;5038222;28;20769;-46
2024/01/30 10:52:37;;;;;;;2.92;2.15;;;7.30;99.90;;;;;;5039529;28;20627;-46
2024/01/30 10:55:07;;;;;;;4.25;2.55;;;7.30;99.90;;;;;;5020932;28;20227;-46
2024/01/30 10:57:37;;;;;;;3.85;2.25;;;7.30;99.90;;;;;;5038530;28;20545;-46
2024/01/30 11:00:10;;;;;;;3.92;3.15;;;7.30;99.90;;;;;;5040827;28;20217;-46
2024/01/30 11:02:40;;;;;;;4.93;2.70;;;7.30;99.90;;;;;;5035714;28;20263;-46
2024/01/30 11:05:09;;;;;;;3.92;2.97;;;7.30;99.90;;;;;;5033571;28;20683;-46
2024/01/30 11:07:40;;;;;;;4.45;2.92;;;7.30;99.90;;;;;;5043893;28;20215;-47
2024/01/30 11:10:09;;;;;;;3.90;2.63;;;7.30;99.90;;;;;;5045240;28;20619;-45
2024/01/30 11:12:43;;;;;;;2.80;2.10;;;7.30;99.90;;;;;;5037937;28;20273;-46
2024/01/30 11:15:13;;;;;;;3.15;2.45;;;7.30;99.90;;;;;;5025971;28;20288;-45
2024/01/30 11:17:46;;;;;;;3.05;2.22;;;7.30;99.90;;;;;;5037934;28;20722;-46
2024/01/30 11:20:18;;;;;;;3.35;2.67;;;7.30;99.90;;;;;;5043447;28;20264;-46
2024/01/30 11:22:47;;;;;;;2.83;2.35;;;7.30;99.90;;;;;;5043101;28;20262;-46
2024/01/30 11:25:16;;;;;;;3.03;2.58;;;7.30;99.90;;;;;;5036379;28;20626;-45
2024/01/30 11:27:47;;;;;;;5.40;2.42;;;7.30;99.90;;;;;;5042021;28;20251;-46
2024/01/30 11:30:23;;;;;;;2.60;2.10;;;7.30;99.90;;;;;;5044026;28;20213;-46
2024/01/30 11:33:02;;;;;;;3.30;2.70;;;7.30;99.90;;;;;;5048003;28;21040;-46
2024/01/30 11:35:33;;;;;;;2.90;2.40;;;7.30;99.90;;;;;;5043677;28;20258;-46
2024/01/30 11:38:02;;;;;;;3.92;2.40;;;7.30;99.90;;;;;;5050435;28;20187;-46
2024/01/30 11:40:31;;;;;;;3.72;2.72;;;7.30;99.90;;;;;;5043960;28;20217;-46
2024/01/30 11:43:02;;;;;;;3.72;2.63;;;7.30;99.90;;;;;;5040495;28;20218;-46
2024/01/30 11:45:31;;;;;;;2.88;2.58;;;7.30;99.90;;;;;;5035834;28;20209;-46
2024/01/30 11:48:01;;;;;;;3.83;2.90;;;7.30;99.90;;;;;;5037814;28;20197;-46
2024/01/30 11:50:29;;;;;;;2.97;2.58;;;7.30;99.90;;;;;;5038644;28;20309;-45
2024/01/30 11:52:58;;;;;;;2.75;2.42;;;7.30;99.90;;;;;;5037744;28;20225;-45
2024/01/30 11:55:27;;;;;;;3.70;2.38;;;7.30;99.90;;;;;;5047066;28;20225;-46
2024/01/30 11:58:04;;;;;;;2.97;2.10;;;7.30;99.90;;;;;;5038886;28;20658;-45
2024/01/30 12:00:33;;;;;;;3.85;3.00;;;7.30;99.90;;;;;;5041169;28;20256;-46
2024/01/30 12:03:02;;;;;;;4.22;2.45;;;7.40;99.90;;;;;;5040941;28;20214;-46
2024/01/30 12:05:31;;;;;;;3.92;2.50;;;7.30;99.90;;;;;;5036473;28;20227;-46
2024/01/30 12:07:59;;;;;;;2.83;2.25;;;7.30;99.90;;;;;;5045326;28;20267;-46
2024/01/30 12:10:30;;;;;;;2.88;2.60;;;7.30;99.90;;;;;;5038359;28;20648;-46
2024/01/30 12:12:59;;;;;;;3.10;2.70;;;7.40;99.90;;;;;;5048964;28;20262;-46
2024/01/30 12:15:29;;;;;;;3.67;2.58;;;7.40;99.90;;;;;;5035818;28;20790;-45
2024/01/30 12:18:05;;;;;;;3.15;2.40;;;7.40;99.90;;;;;;5037619;28;20224;-45
2024/01/30 12:20:34;;;;;;;3.40;2.22;;;7.40;99.90;;;;;;5043107;28;20653;-46
2024/01/30 12:23:02;;;;;;;2.90;2.30;;;7.40;99.90;;;;;;5044147;28;20223;-47
2024/01/30 12:25:31;;;;;;;3.35;2.63;;;7.40;99.90;;;;;;5039855;28;20739;-46
2024/01/30 12:27:59;;;;;;;4.85;2.85;;;7.40;99.90;;;;;;5044751;28;20197;-46
2024/01/30 12:30:30;;;;;;;8.30;5.43;;;7.50;99.90;;;;;;5041806;28;20705;-47
2024/01/30 12:33:01;;;;;;;5.97;4.55;;;7.60;99.90;;;;;;5045584;28;20227;-46
2024/01/30 12:35:29;;;;;;;9.68;4.97;;;7.70;99.90;;;;;;5036286;28;20225;-45
2024/01/30 12:38:01;;;;;;;9.30;6.38;;;7.80;99.90;;;;;;5042596;28;20200;-45
2024/01/30 12:40:29;;;;;;;12.05;7.97;;;7.90;99.90;;;;;;5047001;28;20235;-45
2024/01/30 12:42:57;;;;;;;13.43;6.60;;;7.90;99.90;;;;;;5036782;28;20780;-45
2024/01/30 12:45:26;;;;;;;11.63;7.28;;;8.00;99.90;;;;;;5045085;28;20509;-46
2024/01/30 12:47:56;;;;;;;8.27;5.25;;;8.00;99.90;;;;;;5038684;28;20250;-46
2024/01/30 12:50:24;;;;;;;11.73;6.97;;;8.10;99.90;;;;;;5042690;28;20316;-45
2024/01/30 12:52:52;;;;;;;6.83;5.90;;;8.10;99.90;;;;;;5037554;28;20274;-45
2024/01/30 12:55:21;;;;;;;10.30;6.40;;;8.20;99.90;;;;;;5038471;28;20466;-45
2024/01/30 12:57:50;;;;;;;7.75;6.30;;;8.20;99.90;;;;;;5037039;28;20443;-45
2024/01/30 13:00:19;;;;;;;9.20;6.53;;;8.20;99.90;;;;;;5037708;28;20271;-45
2024/01/30 13:02:48;;;;;;;14.77;6.10;;;8.20;99.90;;;;;;5036407;28;20479;-44
2024/01/30 13:05:18;;;;;;;11.10;7.07;;;8.30;99.90;;;;;;5037448;28;20541;-46
2024/01/30 13:07:46;;;;;;;8.95;6.07;;;8.30;99.90;;;;;;5034593;28;21076;-45